sensor_id;sensor_type;location;lat;lon;timestamp;P1;durP1;ratioP1;P2;durP2;ratioP2
9698;SDS011;10089;47.876;8.346;2023-02-28T00:02:17;5.73;;;5.03;;
9698;SDS011;10089;47.876;8.346;2023-02-28T00:04:43;6.13;;;5.13;;
9698;SDS011;10089;47.876;8.346;2023-02-28T00:07:09;8.00;;;5.73;;
9698;SDS011;10089;47.876;8.346;2023-02-28T00:09:35;7.90;;;5.70;;
9698;SDS011;10089;47.876;8.346;2023-02-28T00:12:00;8.47;;;5.53;;
9698;SDS011;10089;47.876;8.346;2023-02-28T00:14:35;6.87;;;5.70;;
9698;SDS011;10089;47.876;8.346;2023-02-28T00:17:01;7.07;;;6.03;;
9698;SDS011;10089;47.876;8.346;2023-02-28T00:19:27;10.13;;;6.17;;
9698;SDS011;10089;47.876;8.346;2023-02-28T00:21:53;8.17;;;5.37;;
9698;SDS011;10089;47.876;8.346;2023-02-28T00:24:18;7.77;;;5.90;;
9698;SDS011;10089;47.876;8.346;2023-02-28T00:26:46;8.90;;;5.30;;
9698;SDS011;10089;47.876;8.346;2023-02-28T00:29:12;7.60;;;6.17;;
9698;SDS011;10089;47.876;8.346;2023-02-28T00:31:38;11.17;;;6.00;;
9698;SDS011;10089;47.876;8.346;2023-02-28T00:34:03;7.93;;;6.23;;
9698;SDS011;10089;47.876;8.346;2023-02-28T00:36:29;8.10;;;6.00;;
9698;SDS011;10089;47.876;8.346;2023-02-28T00:38:55;8.57;;;5.50;;
9698;SDS011;10089;47.876;8.346;2023-02-28T00:41:20;8.57;;;5.93;;
9698;SDS011;10089;47.876;8.346;2023-02-28T00:43:46;6.53;;;5.30;;
9698;SDS011;10089;47.876;8.346;2023-02-28T00:46:12;7.50;;;6.13;;
9698;SDS011;10089;47.876;8.346;2023-02-28T00:48:37;5.93;;;4.30;;
9698;SDS011;10089;47.876;8.346;2023-02-28T00:51:03;5.93;;;5.17;;
9698;SDS011;10089;47.876;8.346;2023-02-28T00:53:29;10.67;;;6.03;;
9698;SDS011;10089;47.876;8.346;2023-02-28T00:55:57;8.47;;;6.30;;
9698;SDS011;10089;47.876;8.346;2023-02-28T00:58:23;8.30;;;5.37;;
9698;SDS011;10089;47.876;8.346;2023-02-28T01:00:50;8.87;;;6.10;;
9698;SDS011;10089;47.876;8.346;2023-02-28T01:03:18;8.97;;;6.27;;
9698;SDS011;10089;47.876;8.346;2023-02-28T01:05:44;5.63;;;4.27;;
9698;SDS011;10089;47.876;8.346;2023-02-28T01:08:11;7.83;;;5.97;;
9698;SDS011;10089;47.876;8.346;2023-02-28T01:10:37;8.67;;;6.23;;
9698;SDS011;10089;47.876;8.346;2023-02-28T01:13:03;6.83;;;5.73;;
9698;SDS011;10089;47.876;8.346;2023-02-28T01:15:29;7.57;;;5.70;;
9698;SDS011;10089;47.876;8.346;2023-02-28T01:17:56;5.90;;;4.97;;
9698;SDS011;10089;47.876;8.346;2023-02-28T01:20:23;7.63;;;6.10;;
9698;SDS011;10089;47.876;8.346;2023-02-28T01:22:48;8.93;;;6.50;;
9698;SDS011;10089;47.876;8.346;2023-02-28T01:25:14;8.17;;;6.50;;
9698;SDS011;10089;47.876;8.346;2023-02-28T01:27:40;9.03;;;6.43;;
9698;SDS011;10089;47.876;8.346;2023-02-28T01:30:07;7.53;;;6.03;;
9698;SDS011;10089;47.876;8.346;2023-02-28T01:32:33;7.50;;;5.90;;
9698;SDS011;10089;47.876;8.346;2023-02-28T01:34:59;7.17;;;5.40;;
9698;SDS011;10089;47.876;8.346;2023-02-28T01:37:25;7.73;;;5.90;;
9698;SDS011;10089;47.876;8.346;2023-02-28T01:39:51;7.93;;;6.20;;
9698;SDS011;10089;47.876;8.346;2023-02-28T01:42:16;5.37;;;4.47;;
9698;SDS011;10089;47.876;8.346;2023-02-28T01:47:34;6.77;;;4.70;;
9698;SDS011;10089;47.876;8.346;2023-02-28T01:50:04;8.77;;;6.97;;
9698;SDS011;10089;47.876;8.346;2023-02-28T01:52:32;7.53;;;5.70;;
9698;SDS011;10089;47.876;8.346;2023-02-28T01:54:59;9.73;;;6.73;;
9698;SDS011;10089;47.876;8.346;2023-02-28T01:57:30;8.43;;;6.13;;
9698;SDS011;10089;47.876;8.346;2023-02-28T02:02:43;7.40;;;6.03;;
9698;SDS011;10089;47.876;8.346;2023-02-28T02:05:14;10.60;;;6.30;;
9698;SDS011;10089;47.876;8.346;2023-02-28T02:07:43;10.40;;;6.83;;
9698;SDS011;10089;47.876;8.346;2023-02-28T02:18:03;7.57;;;6.60;;
9698;SDS011;10089;47.876;8.346;2023-02-28T02:34:37;10.17;;;7.03;;
9698;SDS011;10089;47.876;8.346;2023-02-28T02:40:16;9.70;;;6.70;;
9698;SDS011;10089;47.876;8.346;2023-02-28T02:42:48;7.73;;;5.70;;
9698;SDS011;10089;47.876;8.346;2023-02-28T02:45:36;9.53;;;6.70;;
9698;SDS011;10089;47.876;8.346;2023-02-28T02:48:08;7.83;;;6.40;;
9698;SDS011;10089;47.876;8.346;2023-02-28T02:50:39;9.70;;;6.93;;
9698;SDS011;10089;47.876;8.346;2023-02-28T02:53:09;6.90;;;5.43;;
9698;SDS011;10089;47.876;8.346;2023-02-28T02:55:38;11.90;;;6.80;;
9698;SDS011;10089;47.876;8.346;2023-02-28T02:58:14;9.83;;;6.47;;
9698;SDS011;10089;47.876;8.346;2023-02-28T03:00:45;9.13;;;6.40;;
9698;SDS011;10089;47.876;8.346;2023-02-28T03:03:16;6.73;;;6.03;;
9698;SDS011;10089;47.876;8.346;2023-02-28T03:05:49;10.50;;;6.97;;
9698;SDS011;10089;47.876;8.346;2023-02-28T03:08:16;9.60;;;6.57;;
9698;SDS011;10089;47.876;8.346;2023-02-28T03:10:43;8.50;;;6.47;;
9698;SDS011;10089;47.876;8.346;2023-02-28T03:18:42;9.20;;;7.30;;
9698;SDS011;10089;47.876;8.346;2023-02-28T03:21:34;9.77;;;7.50;;
9698;SDS011;10089;47.876;8.346;2023-02-28T03:24:34;9.53;;;7.43;;
9698;SDS011;10089;47.876;8.346;2023-02-28T03:27:24;9.83;;;7.50;;
9698;SDS011;10089;47.876;8.346;2023-02-28T03:29:56;9.77;;;7.27;;
9698;SDS011;10089;47.876;8.346;2023-02-28T03:32:32;12.80;;;7.20;;
9698;SDS011;10089;47.876;8.346;2023-02-28T03:35:07;12.60;;;8.33;;
9698;SDS011;10089;47.876;8.346;2023-02-28T03:37:40;11.50;;;7.47;;
9698;SDS011;10089;47.876;8.346;2023-02-28T03:40:10;9.63;;;7.60;;
9698;SDS011;10089;47.876;8.346;2023-02-28T03:42:41;11.63;;;7.30;;
9698;SDS011;10089;47.876;8.346;2023-02-28T03:45:12;10.60;;;7.43;;
9698;SDS011;10089;47.876;8.346;2023-02-28T03:47:44;9.43;;;7.60;;
9698;SDS011;10089;47.876;8.346;2023-02-28T03:50:18;10.80;;;7.33;;
9698;SDS011;10089;47.876;8.346;2023-02-28T03:53:14;10.60;;;6.50;;
9698;SDS011;10089;47.876;8.346;2023-02-28T03:55:48;7.30;;;5.73;;
9698;SDS011;10089;47.876;8.346;2023-02-28T04:01:12;11.23;;;7.40;;
9698;SDS011;10089;47.876;8.346;2023-02-28T04:03:45;10.50;;;7.53;;
9698;SDS011;10089;47.876;8.346;2023-02-28T04:06:18;11.10;;;7.63;;
9698;SDS011;10089;47.876;8.346;2023-02-28T04:08:46;14.00;;;6.73;;
9698;SDS011;10089;47.876;8.346;2023-02-28T04:14:00;10.50;;;8.00;;
9698;SDS011;10089;47.876;8.346;2023-02-28T04:16:27;8.93;;;6.20;;
9698;SDS011;10089;47.876;8.346;2023-02-28T04:18:53;8.83;;;7.10;;
9698;SDS011;10089;47.876;8.346;2023-02-28T04:24:23;10.27;;;7.33;;
9698;SDS011;10089;47.876;8.346;2023-02-28T04:26:52;9.40;;;7.17;;
9698;SDS011;10089;47.876;8.346;2023-02-28T04:29:20;9.17;;;7.10;;
9698;SDS011;10089;47.876;8.346;2023-02-28T04:31:54;12.07;;;7.50;;
9698;SDS011;10089;47.876;8.346;2023-02-28T04:34:23;10.90;;;7.40;;
9698;SDS011;10089;47.876;8.346;2023-02-28T04:36:49;12.43;;;7.77;;
9698;SDS011;10089;47.876;8.346;2023-02-28T04:39:16;10.57;;;7.13;;
9698;SDS011;10089;47.876;8.346;2023-02-28T04:41:43;9.23;;;6.90;;
9698;SDS011;10089;47.876;8.346;2023-02-28T04:44:09;10.30;;;7.00;;
9698;SDS011;10089;47.876;8.346;2023-02-28T04:46:47;10.13;;;6.57;;
9698;SDS011;10089;47.876;8.346;2023-02-28T04:49:13;10.63;;;7.47;;
9698;SDS011;10089;47.876;8.346;2023-02-28T04:51:40;10.43;;;7.07;;
9698;SDS011;10089;47.876;8.346;2023-02-28T04:54:06;7.57;;;5.03;;
9698;SDS011;10089;47.876;8.346;2023-02-28T04:56:32;9.73;;;7.57;;
9698;SDS011;10089;47.876;8.346;2023-02-28T04:58:58;11.10;;;7.23;;
9698;SDS011;10089;47.876;8.346;2023-02-28T05:01:28;12.00;;;8.07;;
9698;SDS011;10089;47.876;8.346;2023-02-28T05:03:56;9.83;;;6.90;;
9698;SDS011;10089;47.876;8.346;2023-02-28T05:06:24;10.10;;;5.33;;
9698;SDS011;10089;47.876;8.346;2023-02-28T05:08:51;11.87;;;7.77;;
9698;SDS011;10089;47.876;8.346;2023-02-28T05:11:27;10.73;;;6.80;;
9698;SDS011;10089;47.876;8.346;2023-02-28T05:14:01;8.87;;;6.07;;
9698;SDS011;10089;47.876;8.346;2023-02-28T05:16:28;11.20;;;8.10;;
9698;SDS011;10089;47.876;8.346;2023-02-28T05:18:54;10.70;;;7.20;;
9698;SDS011;10089;47.876;8.346;2023-02-28T05:21:28;9.63;;;7.13;;
9698;SDS011;10089;47.876;8.346;2023-02-28T05:23:57;9.93;;;6.53;;
9698;SDS011;10089;47.876;8.346;2023-02-28T05:26:24;14.40;;;7.60;;
9698;SDS011;10089;47.876;8.346;2023-02-28T05:28:51;8.23;;;6.20;;
9698;SDS011;10089;47.876;8.346;2023-02-28T05:31:17;12.90;;;7.50;;
9698;SDS011;10089;47.876;8.346;2023-02-28T05:33:43;11.47;;;7.40;;
9698;SDS011;10089;47.876;8.346;2023-02-28T05:36:09;11.23;;;7.03;;
9698;SDS011;10089;47.876;8.346;2023-02-28T05:38:34;10.47;;;7.73;;
9698;SDS011;10089;47.876;8.346;2023-02-28T05:41:04;13.10;;;8.43;;
9698;SDS011;10089;47.876;8.346;2023-02-28T05:43:33;10.33;;;7.33;;
9698;SDS011;10089;47.876;8.346;2023-02-28T05:46:01;10.57;;;7.90;;
9698;SDS011;10089;47.876;8.346;2023-02-28T05:48:31;11.73;;;7.73;;
9698;SDS011;10089;47.876;8.346;2023-02-28T05:50:58;12.73;;;7.77;;
9698;SDS011;10089;47.876;8.346;2023-02-28T05:53:24;11.10;;;8.60;;
9698;SDS011;10089;47.876;8.346;2023-02-28T05:55:49;12.13;;;8.63;;
9698;SDS011;10089;47.876;8.346;2023-02-28T05:58:15;11.37;;;8.50;;
9698;SDS011;10089;47.876;8.346;2023-02-28T06:00:41;11.90;;;8.60;;
9698;SDS011;10089;47.876;8.346;2023-02-28T06:03:06;12.63;;;8.63;;
9698;SDS011;10089;47.876;8.346;2023-02-28T06:05:32;13.40;;;7.50;;
9698;SDS011;10089;47.876;8.346;2023-02-28T06:07:59;11.57;;;8.83;;
9698;SDS011;10089;47.876;8.346;2023-02-28T06:10:24;11.77;;;7.83;;
9698;SDS011;10089;47.876;8.346;2023-02-28T06:15:19;13.43;;;8.77;;
9698;SDS011;10089;47.876;8.346;2023-02-28T06:17:45;11.63;;;8.40;;
9698;SDS011;10089;47.876;8.346;2023-02-28T06:20:12;10.53;;;8.20;;
9698;SDS011;10089;47.876;8.346;2023-02-28T06:22:40;10.30;;;7.93;;
9698;SDS011;10089;47.876;8.346;2023-02-28T06:25:06;10.20;;;7.90;;
9698;SDS011;10089;47.876;8.346;2023-02-28T06:27:32;10.43;;;8.13;;
9698;SDS011;10089;47.876;8.346;2023-02-28T06:29:59;13.00;;;8.47;;
9698;SDS011;10089;47.876;8.346;2023-02-28T06:32:24;12.80;;;8.40;;
9698;SDS011;10089;47.876;8.346;2023-02-28T06:34:50;12.60;;;8.63;;
9698;SDS011;10089;47.876;8.346;2023-02-28T06:37:16;8.73;;;6.23;;
9698;SDS011;10089;47.876;8.346;2023-02-28T06:39:43;12.57;;;7.90;;
9698;SDS011;10089;47.876;8.346;2023-02-28T06:42:08;10.50;;;8.53;;
9698;SDS011;10089;47.876;8.346;2023-02-28T06:44:34;12.63;;;8.80;;
9698;SDS011;10089;47.876;8.346;2023-02-28T06:47:04;10.37;;;8.40;;
9698;SDS011;10089;47.876;8.346;2023-02-28T06:49:31;11.20;;;8.47;;
9698;SDS011;10089;47.876;8.346;2023-02-28T06:51:58;14.57;;;8.93;;
9698;SDS011;10089;47.876;8.346;2023-02-28T06:54:24;15.53;;;9.43;;
9698;SDS011;10089;47.876;8.346;2023-02-28T06:56:50;12.60;;;8.53;;
9698;SDS011;10089;47.876;8.346;2023-02-28T06:59:16;14.40;;;8.67;;
9698;SDS011;10089;47.876;8.346;2023-02-28T07:01:42;16.77;;;11.33;;
9698;SDS011;10089;47.876;8.346;2023-02-28T07:04:08;12.43;;;9.60;;
9698;SDS011;10089;47.876;8.346;2023-02-28T07:06:33;13.20;;;9.37;;
9698;SDS011;10089;47.876;8.346;2023-02-28T07:08:59;15.23;;;10.03;;
9698;SDS011;10089;47.876;8.346;2023-02-28T07:11:25;11.97;;;8.87;;
9698;SDS011;10089;47.876;8.346;2023-02-28T07:13:53;11.97;;;8.73;;
9698;SDS011;10089;47.876;8.346;2023-02-28T07:16:19;13.23;;;9.63;;
9698;SDS011;10089;47.876;8.346;2023-02-28T07:18:45;11.43;;;8.00;;
9698;SDS011;10089;47.876;8.346;2023-02-28T07:21:11;11.00;;;6.50;;
9698;SDS011;10089;47.876;8.346;2023-02-28T07:23:37;14.03;;;9.07;;
9698;SDS011;10089;47.876;8.346;2023-02-28T07:26:03;20.87;;;12.40;;
9698;SDS011;10089;47.876;8.346;2023-02-28T07:28:30;19.33;;;12.53;;
9698;SDS011;10089;47.876;8.346;2023-02-28T07:30:55;20.67;;;11.87;;
9698;SDS011;10089;47.876;8.346;2023-02-28T07:33:21;13.90;;;9.90;;
9698;SDS011;10089;47.876;8.346;2023-02-28T07:35:48;13.00;;;10.07;;
9698;SDS011;10089;47.876;8.346;2023-02-28T07:38:17;14.07;;;10.07;;
9698;SDS011;10089;47.876;8.346;2023-02-28T07:40:43;12.57;;;9.40;;
9698;SDS011;10089;47.876;8.346;2023-02-28T07:43:08;15.27;;;9.27;;
9698;SDS011;10089;47.876;8.346;2023-02-28T07:45:34;15.37;;;9.90;;
9698;SDS011;10089;47.876;8.346;2023-02-28T07:48:00;12.17;;;9.33;;
9698;SDS011;10089;47.876;8.346;2023-02-28T07:50:26;13.00;;;8.60;;
9698;SDS011;10089;47.876;8.346;2023-02-28T07:52:56;11.93;;;8.93;;
9698;SDS011;10089;47.876;8.346;2023-02-28T07:55:23;12.53;;;8.63;;
9698;SDS011;10089;47.876;8.346;2023-02-28T07:57:48;12.40;;;9.00;;
9698;SDS011;10089;47.876;8.346;2023-02-28T08:00:14;11.87;;;8.63;;
9698;SDS011;10089;47.876;8.346;2023-02-28T08:02:40;14.37;;;9.17;;
9698;SDS011;10089;47.876;8.346;2023-02-28T08:05:06;11.53;;;8.20;;
9698;SDS011;10089;47.876;8.346;2023-02-28T08:07:32;13.10;;;9.20;;
9698;SDS011;10089;47.876;8.346;2023-02-28T08:09:58;16.00;;;10.67;;
9698;SDS011;10089;47.876;8.346;2023-02-28T08:12:24;21.53;;;11.70;;
9698;SDS011;10089;47.876;8.346;2023-02-28T08:14:50;15.37;;;10.43;;
9698;SDS011;10089;47.876;8.346;2023-02-28T08:17:16;15.63;;;10.00;;
9698;SDS011;10089;47.876;8.346;2023-02-28T08:19:41;14.10;;;10.23;;
9698;SDS011;10089;47.876;8.346;2023-02-28T08:22:09;13.13;;;9.73;;
9698;SDS011;10089;47.876;8.346;2023-02-28T08:24:35;14.03;;;10.30;;
9698;SDS011;10089;47.876;8.346;2023-02-28T08:27:01;19.67;;;9.37;;
9698;SDS011;10089;47.876;8.346;2023-02-28T08:29:26;13.30;;;9.90;;
9698;SDS011;10089;47.876;8.346;2023-02-28T08:31:52;15.07;;;8.70;;
9698;SDS011;10089;47.876;8.346;2023-02-28T08:34:17;12.67;;;9.37;;
9698;SDS011;10089;47.876;8.346;2023-02-28T08:36:43;20.57;;;12.67;;
9698;SDS011;10089;47.876;8.346;2023-02-28T08:39:12;13.73;;;10.60;;
9698;SDS011;10089;47.876;8.346;2023-02-28T08:41:38;12.97;;;9.30;;
9698;SDS011;10089;47.876;8.346;2023-02-28T08:44:04;12.80;;;9.53;;
9698;SDS011;10089;47.876;8.346;2023-02-28T08:46:30;12.57;;;9.23;;
9698;SDS011;10089;47.876;8.346;2023-02-28T08:48:56;15.57;;;9.10;;
9698;SDS011;10089;47.876;8.346;2023-02-28T08:51:26;12.23;;;8.40;;
9698;SDS011;10089;47.876;8.346;2023-02-28T08:53:53;10.77;;;8.37;;
9698;SDS011;10089;47.876;8.346;2023-02-28T08:56:20;11.63;;;9.03;;
9698;SDS011;10089;47.876;8.346;2023-02-28T08:58:46;12.33;;;8.70;;
9698;SDS011;10089;47.876;8.346;2023-02-28T09:01:20;10.80;;;8.43;;
9698;SDS011;10089;47.876;8.346;2023-02-28T09:03:48;11.83;;;8.53;;
9698;SDS011;10089;47.876;8.346;2023-02-28T09:06:15;13.80;;;8.63;;
9698;SDS011;10089;47.876;8.346;2023-02-28T09:08:42;17.37;;;8.80;;
9698;SDS011;10089;47.876;8.346;2023-02-28T09:11:09;13.23;;;8.53;;
9698;SDS011;10089;47.876;8.346;2023-02-28T09:13:35;17.73;;;11.27;;
9698;SDS011;10089;47.876;8.346;2023-02-28T09:16:01;14.37;;;10.30;;
9698;SDS011;10089;47.876;8.346;2023-02-28T09:18:29;14.93;;;9.17;;
9698;SDS011;10089;47.876;8.346;2023-02-28T09:20:55;14.57;;;10.40;;
9698;SDS011;10089;47.876;8.346;2023-02-28T09:23:21;12.37;;;8.80;;
9698;SDS011;10089;47.876;8.346;2023-02-28T09:25:50;12.50;;;9.50;;
9698;SDS011;10089;47.876;8.346;2023-02-28T09:28:18;15.13;;;9.93;;
9698;SDS011;10089;47.876;8.346;2023-02-28T09:30:45;21.13;;;11.43;;
9698;SDS011;10089;47.876;8.346;2023-02-28T09:33:13;19.77;;;11.93;;
9698;SDS011;10089;47.876;8.346;2023-02-28T09:35:40;12.00;;;8.47;;
9698;SDS011;10089;47.876;8.346;2023-02-28T09:38:06;12.53;;;9.37;;
9698;SDS011;10089;47.876;8.346;2023-02-28T09:40:34;12.47;;;9.13;;
9698;SDS011;10089;47.876;8.346;2023-02-28T09:43:02;11.87;;;8.93;;
9698;SDS011;10089;47.876;8.346;2023-02-28T09:45:39;15.33;;;9.93;;
9698;SDS011;10089;47.876;8.346;2023-02-28T09:48:11;10.90;;;8.27;;
9698;SDS011;10089;47.876;8.346;2023-02-28T09:53:28;23.47;;;11.07;;
9698;SDS011;10089;47.876;8.346;2023-02-28T09:56:14;16.47;;;9.97;;
9698;SDS011;10089;47.876;8.346;2023-02-28T09:58:55;12.60;;;9.50;;
9698;SDS011;10089;47.876;8.346;2023-02-28T10:01:57;15.10;;;9.70;;
9698;SDS011;10089;47.876;8.346;2023-02-28T10:10:13;12.53;;;9.23;;
9698;SDS011;10089;47.876;8.346;2023-02-28T10:12:47;14.17;;;9.20;;
9698;SDS011;10089;47.876;8.346;2023-02-28T10:15:17;15.43;;;9.90;;
9698;SDS011;10089;47.876;8.346;2023-02-28T10:17:47;14.23;;;10.10;;
9698;SDS011;10089;47.876;8.346;2023-02-28T10:20:20;13.93;;;9.67;;
9698;SDS011;10089;47.876;8.346;2023-02-28T10:25:32;18.07;;;11.37;;
9698;SDS011;10089;47.876;8.346;2023-02-28T10:28:08;15.37;;;10.83;;
9698;SDS011;10089;47.876;8.346;2023-02-28T10:30:40;13.77;;;8.93;;
9698;SDS011;10089;47.876;8.346;2023-02-28T10:33:19;16.40;;;10.67;;
9698;SDS011;10089;47.876;8.346;2023-02-28T10:35:48;17.40;;;11.10;;
9698;SDS011;10089;47.876;8.346;2023-02-28T10:38:19;15.37;;;9.97;;
9698;SDS011;10089;47.876;8.346;2023-02-28T10:40:47;18.03;;;10.70;;
9698;SDS011;10089;47.876;8.346;2023-02-28T10:45:39;19.20;;;11.83;;
9698;SDS011;10089;47.876;8.346;2023-02-28T10:50:43;18.70;;;12.57;;
9698;SDS011;10089;47.876;8.346;2023-02-28T11:01:10;12.97;;;9.93;;
9698;SDS011;10089;47.876;8.346;2023-02-28T11:03:42;16.00;;;9.77;;
9698;SDS011;10089;47.876;8.346;2023-02-28T11:06:12;12.97;;;9.67;;
9698;SDS011;10089;47.876;8.346;2023-02-28T11:08:44;16.03;;;11.00;;
9698;SDS011;10089;47.876;8.346;2023-02-28T11:11:21;15.10;;;9.53;;
9698;SDS011;10089;47.876;8.346;2023-02-28T11:13:53;15.33;;;11.33;;
9698;SDS011;10089;47.876;8.346;2023-02-28T11:16:22;14.90;;;10.10;;
9698;SDS011;10089;47.876;8.346;2023-02-28T11:19:01;22.93;;;15.87;;
9698;SDS011;10089;47.876;8.346;2023-02-28T11:21:33;18.03;;;10.83;;
9698;SDS011;10089;47.876;8.346;2023-02-28T11:24:27;19.87;;;12.43;;
9698;SDS011;10089;47.876;8.346;2023-02-28T11:26:56;16.13;;;10.73;;
9698;SDS011;10089;47.876;8.346;2023-02-28T11:34:31;13.97;;;10.20;;
9698;SDS011;10089;47.876;8.346;2023-02-28T11:36:58;14.60;;;10.47;;
9698;SDS011;10089;47.876;8.346;2023-02-28T11:39:26;14.43;;;9.63;;
9698;SDS011;10089;47.876;8.346;2023-02-28T11:47:53;13.03;;;10.07;;
9698;SDS011;10089;47.876;8.346;2023-02-28T11:56:26;12.07;;;9.03;;
9698;SDS011;10089;47.876;8.346;2023-02-28T12:04:52;15.03;;;10.63;;
9698;SDS011;10089;47.876;8.346;2023-02-28T12:16:24;12.80;;;9.80;;
9698;SDS011;10089;47.876;8.346;2023-02-28T12:19:12;26.73;;;14.07;;
9698;SDS011;10089;47.876;8.346;2023-02-28T12:21:55;15.67;;;10.73;;
9698;SDS011;10089;47.876;8.346;2023-02-28T12:24:28;19.17;;;10.87;;
9698;SDS011;10089;47.876;8.346;2023-02-28T12:26:57;13.27;;;9.80;;
9698;SDS011;10089;47.876;8.346;2023-02-28T12:29:28;13.90;;;10.50;;
9698;SDS011;10089;47.876;8.346;2023-02-28T12:32:08;15.73;;;9.63;;
9698;SDS011;10089;47.876;8.346;2023-02-28T12:34:48;15.17;;;10.57;;
9698;SDS011;10089;47.876;8.346;2023-02-28T12:37:19;14.10;;;10.13;;
9698;SDS011;10089;47.876;8.346;2023-02-28T12:40:00;13.30;;;9.60;;
9698;SDS011;10089;47.876;8.346;2023-02-28T12:42:36;15.60;;;10.83;;
9698;SDS011;10089;47.876;8.346;2023-02-28T12:48:14;12.47;;;9.37;;
9698;SDS011;10089;47.876;8.346;2023-02-28T12:50:44;17.93;;;11.03;;
9698;SDS011;10089;47.876;8.346;2023-02-28T12:53:22;16.00;;;10.10;;
9698;SDS011;10089;47.876;8.346;2023-02-28T12:55:57;15.30;;;9.97;;
9698;SDS011;10089;47.876;8.346;2023-02-28T12:58:36;17.07;;;10.97;;
9698;SDS011;10089;47.876;8.346;2023-02-28T13:04:04;15.77;;;9.13;;
9698;SDS011;10089;47.876;8.346;2023-02-28T13:09:38;15.53;;;10.97;;
9698;SDS011;10089;47.876;8.346;2023-02-28T13:12:12;18.00;;;11.83;;
9698;SDS011;10089;47.876;8.346;2023-02-28T13:14:39;17.07;;;11.67;;
9698;SDS011;10089;47.876;8.346;2023-02-28T13:19:38;13.03;;;9.83;;
9698;SDS011;10089;47.876;8.346;2023-02-28T13:22:51;17.77;;;12.23;;
9698;SDS011;10089;47.876;8.346;2023-02-28T13:27:51;17.30;;;11.77;;
9698;SDS011;10089;47.876;8.346;2023-02-28T13:33:35;15.63;;;10.20;;
9698;SDS011;10089;47.876;8.346;2023-02-28T13:39:11;15.40;;;11.57;;
9698;SDS011;10089;47.876;8.346;2023-02-28T13:47:41;13.97;;;10.00;;
9698;SDS011;10089;47.876;8.346;2023-02-28T13:50:32;14.40;;;10.90;;
9698;SDS011;10089;47.876;8.346;2023-02-28T13:55:49;15.17;;;10.47;;
9698;SDS011;10089;47.876;8.346;2023-02-28T13:58:31;17.10;;;9.03;;
9698;SDS011;10089;47.876;8.346;2023-02-28T14:09:02;14.33;;;10.80;;
9698;SDS011;10089;47.876;8.346;2023-02-28T14:11:36;13.77;;;9.70;;
9698;SDS011;10089;47.876;8.346;2023-02-28T14:14:04;18.03;;;11.07;;
9698;SDS011;10089;47.876;8.346;2023-02-28T14:16:41;15.27;;;10.97;;
9698;SDS011;10089;47.876;8.346;2023-02-28T14:21:50;14.27;;;11.40;;
9698;SDS011;10089;47.876;8.346;2023-02-28T14:27:15;14.10;;;10.27;;
9698;SDS011;10089;47.876;8.346;2023-02-28T14:30:26;17.13;;;12.87;;
9698;SDS011;10089;47.876;8.346;2023-02-28T14:33:05;15.17;;;10.47;;
9698;SDS011;10089;47.876;8.346;2023-02-28T14:41:40;14.93;;;10.30;;
9698;SDS011;10089;47.876;8.346;2023-02-28T14:44:18;13.37;;;10.77;;
9698;SDS011;10089;47.876;8.346;2023-02-28T14:46:50;18.17;;;11.07;;
9698;SDS011;10089;47.876;8.346;2023-02-28T14:49:37;15.70;;;11.60;;
9698;SDS011;10089;47.876;8.346;2023-02-28T14:52:14;14.17;;;10.00;;
9698;SDS011;10089;47.876;8.346;2023-02-28T14:54:44;15.63;;;11.23;;
9698;SDS011;10089;47.876;8.346;2023-02-28T14:57:23;15.10;;;11.33;;
9698;SDS011;10089;47.876;8.346;2023-02-28T15:02:45;15.87;;;11.07;;
9698;SDS011;10089;47.876;8.346;2023-02-28T15:08:05;15.73;;;11.13;;
9698;SDS011;10089;47.876;8.346;2023-02-28T15:10:31;14.83;;;10.77;;
9698;SDS011;10089;47.876;8.346;2023-02-28T15:13:02;17.73;;;11.67;;
9698;SDS011;10089;47.876;8.346;2023-02-28T15:18:10;15.67;;;11.30;;
9698;SDS011;10089;47.876;8.346;2023-02-28T15:20:45;15.17;;;11.10;;
9698;SDS011;10089;47.876;8.346;2023-02-28T15:23:11;16.07;;;10.80;;
9698;SDS011;10089;47.876;8.346;2023-02-28T15:25:39;16.00;;;11.17;;
9698;SDS011;10089;47.876;8.346;2023-02-28T15:28:05;14.53;;;10.93;;
9698;SDS011;10089;47.876;8.346;2023-02-28T15:30:49;15.13;;;11.23;;
9698;SDS011;10089;47.876;8.346;2023-02-28T15:33:19;24.03;;;14.83;;
9698;SDS011;10089;47.876;8.346;2023-02-28T15:35:46;19.17;;;12.93;;
9698;SDS011;10089;47.876;8.346;2023-02-28T15:41:00;18.43;;;12.70;;
9698;SDS011;10089;47.876;8.346;2023-02-28T15:43:29;21.77;;;12.17;;
9698;SDS011;10089;47.876;8.346;2023-02-28T15:48:27;18.13;;;11.83;;
9698;SDS011;10089;47.876;8.346;2023-02-28T15:53:54;18.13;;;12.30;;
9698;SDS011;10089;47.876;8.346;2023-02-28T15:56:25;18.63;;;13.20;;
9698;SDS011;10089;47.876;8.346;2023-02-28T15:59:01;18.53;;;11.97;;
9698;SDS011;10089;47.876;8.346;2023-02-28T16:01:35;22.47;;;14.40;;
9698;SDS011;10089;47.876;8.346;2023-02-28T16:04:04;16.23;;;11.33;;
9698;SDS011;10089;47.876;8.346;2023-02-28T16:06:43;16.50;;;11.60;;
9698;SDS011;10089;47.876;8.346;2023-02-28T16:09:25;20.50;;;12.90;;
9698;SDS011;10089;47.876;8.346;2023-02-28T16:11:52;19.00;;;11.63;;
9698;SDS011;10089;47.876;8.346;2023-02-28T16:14:24;20.07;;;11.03;;
9698;SDS011;10089;47.876;8.346;2023-02-28T16:17:04;29.63;;;17.40;;
9698;SDS011;10089;47.876;8.346;2023-02-28T16:19:42;30.63;;;15.97;;
9698;SDS011;10089;47.876;8.346;2023-02-28T16:22:08;23.07;;;14.33;;
9698;SDS011;10089;47.876;8.346;2023-02-28T16:24:34;16.43;;;10.70;;
9698;SDS011;10089;47.876;8.346;2023-02-28T16:27:00;16.60;;;12.33;;
9698;SDS011;10089;47.876;8.346;2023-02-28T16:29:27;16.37;;;11.07;;
9698;SDS011;10089;47.876;8.346;2023-02-28T16:31:56;18.00;;;12.07;;
9698;SDS011;10089;47.876;8.346;2023-02-28T16:34:22;17.60;;;11.60;;
9698;SDS011;10089;47.876;8.346;2023-02-28T16:36:48;17.43;;;12.10;;
9698;SDS011;10089;47.876;8.346;2023-02-28T16:39:14;15.20;;;11.20;;
9698;SDS011;10089;47.876;8.346;2023-02-28T16:41:41;19.17;;;12.80;;
9698;SDS011;10089;47.876;8.346;2023-02-28T16:44:10;18.40;;;12.50;;
9698;SDS011;10089;47.876;8.346;2023-02-28T16:46:38;15.30;;;11.53;;
9698;SDS011;10089;47.876;8.346;2023-02-28T16:49:04;17.77;;;12.53;;
9698;SDS011;10089;47.876;8.346;2023-02-28T16:51:35;18.37;;;12.27;;
9698;SDS011;10089;47.876;8.346;2023-02-28T16:54:00;20.40;;;12.53;;
9698;SDS011;10089;47.876;8.346;2023-02-28T16:56:26;15.93;;;11.97;;
9698;SDS011;10089;47.876;8.346;2023-02-28T16:58:52;17.97;;;11.90;;
9698;SDS011;10089;47.876;8.346;2023-02-28T17:01:24;15.47;;;12.33;;
9698;SDS011;10089;47.876;8.346;2023-02-28T17:03:52;21.40;;;14.47;;
9698;SDS011;10089;47.876;8.346;2023-02-28T17:06:22;21.70;;;13.87;;
9698;SDS011;10089;47.876;8.346;2023-02-28T17:08:53;19.90;;;14.07;;
9698;SDS011;10089;47.876;8.346;2023-02-28T17:11:19;21.27;;;13.70;;
9698;SDS011;10089;47.876;8.346;2023-02-28T17:13:46;25.23;;;16.50;;
9698;SDS011;10089;47.876;8.346;2023-02-28T17:16:32;18.60;;;12.27;;
9698;SDS011;10089;47.876;8.346;2023-02-28T17:19:00;18.87;;;13.33;;
9698;SDS011;10089;47.876;8.346;2023-02-28T17:21:28;24.40;;;14.33;;
9698;SDS011;10089;47.876;8.346;2023-02-28T17:23:54;17.27;;;12.73;;
9698;SDS011;10089;47.876;8.346;2023-02-28T17:26:20;18.57;;;13.17;;
9698;SDS011;10089;47.876;8.346;2023-02-28T17:28:49;19.53;;;13.60;;
9698;SDS011;10089;47.876;8.346;2023-02-28T17:31:16;19.10;;;13.13;;
9698;SDS011;10089;47.876;8.346;2023-02-28T17:33:42;24.90;;;14.13;;
9698;SDS011;10089;47.876;8.346;2023-02-28T17:36:16;21.30;;;14.07;;
9698;SDS011;10089;47.876;8.346;2023-02-28T17:38:47;20.03;;;12.67;;
9698;SDS011;10089;47.876;8.346;2023-02-28T17:41:13;17.90;;;12.90;;
9698;SDS011;10089;47.876;8.346;2023-02-28T17:43:39;21.13;;;12.17;;
9698;SDS011;10089;47.876;8.346;2023-02-28T17:46:05;20.03;;;13.83;;
9698;SDS011;10089;47.876;8.346;2023-02-28T17:48:39;18.17;;;13.33;;
9698;SDS011;10089;47.876;8.346;2023-02-28T17:51:05;19.47;;;13.23;;